sensor_id;sensor_type;location;lat;lon;timestamp;P1;durP1;ratioP1;P2;durP2;ratioP2
55800;SDS011;41730;51.960;20.158;2022-11-20T00:01:52;37.70;;;16.40;;
55800;SDS011;41730;51.960;20.158;2022-11-20T00:04:26;42.40;;;17.60;;
55800;SDS011;41730;51.960;20.158;2022-11-20T00:06:59;46.10;;;19.60;;
55800;SDS011;41730;51.960;20.158;2022-11-20T00:09:36;36.10;;;15.10;;
55800;SDS011;41730;51.960;20.158;2022-11-20T00:12:09;35.80;;;16.70;;
55800;SDS011;41730;51.960;20.158;2022-11-20T00:14:41;42.20;;;17.60;;
55800;SDS011;41730;51.960;20.158;2022-11-20T00:17:25;45.70;;;18.70;;
55800;SDS011;41730;51.960;20.158;2022-11-20T00:20:03;41.20;;;19.30;;
55800;SDS011;41730;51.960;20.158;2022-11-20T00:22:43;47.80;;;19.20;;
55800;SDS011;41730;51.960;20.158;2022-11-20T00:25:15;40.10;;;17.20;;
55800;SDS011;41730;51.960;20.158;2022-11-20T00:27:51;45.50;;;19.40;;
55800;SDS011;41730;51.960;20.158;2022-11-20T00:30:42;41.90;;;17.90;;
55800;SDS011;41730;51.960;20.158;2022-11-20T00:33:18;48.50;;;19.40;;
55800;SDS011;41730;51.960;20.158;2022-11-20T00:35:56;37.20;;;16.50;;
55800;SDS011;41730;51.960;20.158;2022-11-20T00:38:33;42.20;;;16.70;;
55800;SDS011;41730;51.960;20.158;2022-11-20T00:41:07;31.40;;;14.20;;
55800;SDS011;41730;51.960;20.158;2022-11-20T00:43:43;39.20;;;17.80;;
55800;SDS011;41730;51.960;20.158;2022-11-20T00:46:21;41.60;;;17.60;;
55800;SDS011;41730;51.960;20.158;2022-11-20T00:49:00;37.70;;;16.30;;
55800;SDS011;41730;51.960;20.158;2022-11-20T00:54:45;40.00;;;16.50;;
55800;SDS011;41730;51.960;20.158;2022-11-20T00:57:19;41.90;;;19.20;;
55800;SDS011;41730;51.960;20.158;2022-11-20T00:59:58;38.90;;;17.90;;
55800;SDS011;41730;51.960;20.158;2022-11-20T01:02:32;38.20;;;16.10;;
55800;SDS011;41730;51.960;20.158;2022-11-20T01:05:09;42.80;;;18.90;;
55800;SDS011;41730;51.960;20.158;2022-11-20T01:07:43;43.50;;;19.20;;
55800;SDS011;41730;51.960;20.158;2022-11-20T01:10:16;40.90;;;15.10;;
55800;SDS011;41730;51.960;20.158;2022-11-20T01:13:06;41.30;;;20.30;;
55800;SDS011;41730;51.960;20.158;2022-11-20T01:16:06;41.10;;;17.20;;
55800;SDS011;41730;51.960;20.158;2022-11-20T01:18:55;37.10;;;17.10;;
55800;SDS011;41730;51.960;20.158;2022-11-20T01:21:47;43.20;;;17.90;;
55800;SDS011;41730;51.960;20.158;2022-11-20T01:24:33;34.90;;;15.20;;
55800;SDS011;41730;51.960;20.158;2022-11-20T01:27:23;35.90;;;15.10;;
55800;SDS011;41730;51.960;20.158;2022-11-20T01:30:04;39.60;;;16.60;;
55800;SDS011;41730;51.960;20.158;2022-11-20T01:32:51;40.20;;;17.40;;
55800;SDS011;41730;51.960;20.158;2022-11-20T01:35:32;45.90;;;18.60;;
55800;SDS011;41730;51.960;20.158;2022-11-20T01:38:35;40.20;;;17.90;;
55800;SDS011;41730;51.960;20.158;2022-11-20T01:41:14;35.10;;;14.80;;
55800;SDS011;41730;51.960;20.158;2022-11-20T01:44:15;39.00;;;18.40;;
55800;SDS011;41730;51.960;20.158;2022-11-20T01:47:04;37.00;;;16.20;;
55800;SDS011;41730;51.960;20.158;2022-11-20T01:49:46;44.00;;;18.80;;
55800;SDS011;41730;51.960;20.158;2022-11-20T01:52:41;44.80;;;19.60;;
55800;SDS011;41730;51.960;20.158;2022-11-20T01:55:33;42.70;;;17.50;;
55800;SDS011;41730;51.960;20.158;2022-11-20T01:58:42;34.00;;;15.20;;
55800;SDS011;41730;51.960;20.158;2022-11-20T02:01:24;29.90;;;13.60;;
55800;SDS011;41730;51.960;20.158;2022-11-20T02:04:08;29.80;;;15.70;;
55800;SDS011;41730;51.960;20.158;2022-11-20T02:06:57;45.80;;;19.10;;
55800;SDS011;41730;51.960;20.158;2022-11-20T02:09:42;37.50;;;16.60;;
55800;SDS011;41730;51.960;20.158;2022-11-20T02:12:26;40.60;;;17.60;;
55800;SDS011;41730;51.960;20.158;2022-11-20T02:15:27;43.20;;;17.80;;
55800;SDS011;41730;51.960;20.158;2022-11-20T02:18:20;35.30;;;15.70;;
55800;SDS011;41730;51.960;20.158;2022-11-20T02:21:06;40.00;;;17.40;;
55800;SDS011;41730;51.960;20.158;2022-11-20T02:26:56;41.00;;;18.40;;
55800;SDS011;41730;51.960;20.158;2022-11-20T02:29:39;48.10;;;18.90;;
55800;SDS011;41730;51.960;20.158;2022-11-20T02:32:37;43.20;;;16.20;;
55800;SDS011;41730;51.960;20.158;2022-11-20T02:38:21;37.30;;;16.10;;
55800;SDS011;41730;51.960;20.158;2022-11-20T02:41:10;35.70;;;15.40;;
55800;SDS011;41730;51.960;20.158;2022-11-20T02:43:52;37.60;;;15.40;;
55800;SDS011;41730;51.960;20.158;2022-11-20T02:46:32;49.80;;;20.40;;
55800;SDS011;41730;51.960;20.158;2022-11-20T02:49:16;45.40;;;19.90;;
55800;SDS011;41730;51.960;20.158;2022-11-20T02:51:50;54.90;;;20.70;;
55800;SDS011;41730;51.960;20.158;2022-11-20T02:54:40;45.00;;;18.80;;
55800;SDS011;41730;51.960;20.158;2022-11-20T02:57:15;43.30;;;18.30;;
55800;SDS011;41730;51.960;20.158;2022-11-20T03:00:03;36.80;;;16.60;;
55800;SDS011;41730;51.960;20.158;2022-11-20T03:02:59;42.00;;;17.00;;
55800;SDS011;41730;51.960;20.158;2022-11-20T03:05:33;38.50;;;15.70;;
55800;SDS011;41730;51.960;20.158;2022-11-20T03:08:22;39.40;;;17.00;;
55800;SDS011;41730;51.960;20.158;2022-11-20T03:11:07;37.50;;;15.20;;
55800;SDS011;41730;51.960;20.158;2022-11-20T03:13:41;46.20;;;18.90;;
55800;SDS011;41730;51.960;20.158;2022-11-20T03:16:30;35.00;;;13.20;;
55800;SDS011;41730;51.960;20.158;2022-11-20T03:19:07;39.00;;;15.60;;
55800;SDS011;41730;51.960;20.158;2022-11-20T03:21:50;34.00;;;14.60;;
55800;SDS011;41730;51.960;20.158;2022-11-20T03:24:40;53.80;;;19.80;;
55800;SDS011;41730;51.960;20.158;2022-11-20T03:30:37;36.50;;;16.20;;
55800;SDS011;41730;51.960;20.158;2022-11-20T03:33:18;35.20;;;12.90;;
55800;SDS011;41730;51.960;20.158;2022-11-20T03:36:08;42.00;;;18.30;;
55800;SDS011;41730;51.960;20.158;2022-11-20T03:38:50;38.40;;;15.70;;
55800;SDS011;41730;51.960;20.158;2022-11-20T03:41:30;58.30;;;18.00;;
55800;SDS011;41730;51.960;20.158;2022-11-20T03:44:16;42.60;;;16.40;;
55800;SDS011;41730;51.960;20.158;2022-11-20T03:46:52;41.20;;;16.10;;
55800;SDS011;41730;51.960;20.158;2022-11-20T03:49:32;41.60;;;16.80;;
55800;SDS011;41730;51.960;20.158;2022-11-20T03:52:17;40.70;;;17.00;;
55800;SDS011;41730;51.960;20.158;2022-11-20T03:54:53;40.40;;;17.70;;
55800;SDS011;41730;51.960;20.158;2022-11-20T03:57:32;36.90;;;16.30;;
55800;SDS011;41730;51.960;20.158;2022-11-20T04:00:11;33.30;;;15.10;;
55800;SDS011;41730;51.960;20.158;2022-11-20T04:02:49;35.90;;;15.10;;
55800;SDS011;41730;51.960;20.158;2022-11-20T04:05:38;50.20;;;19.10;;
55800;SDS011;41730;51.960;20.158;2022-11-20T04:08:20;40.90;;;16.60;;
55800;SDS011;41730;51.960;20.158;2022-11-20T04:10:55;48.50;;;17.80;;
55800;SDS011;41730;51.960;20.158;2022-11-20T04:13:40;32.40;;;14.10;;
55800;SDS011;41730;51.960;20.158;2022-11-20T04:16:19;43.10;;;16.90;;
55800;SDS011;41730;51.960;20.158;2022-11-20T04:18:56;43.60;;;17.50;;
55800;SDS011;41730;51.960;20.158;2022-11-20T04:21:38;38.90;;;16.80;;
55800;SDS011;41730;51.960;20.158;2022-11-20T04:24:18;44.20;;;18.20;;
55800;SDS011;41730;51.960;20.158;2022-11-20T04:34:42;36.20;;;14.30;;
55800;SDS011;41730;51.960;20.158;2022-11-20T04:37:20;38.10;;;14.60;;
55800;SDS011;41730;51.960;20.158;2022-11-20T04:39:51;41.20;;;14.70;;
55800;SDS011;41730;51.960;20.158;2022-11-20T04:42:23;39.50;;;17.70;;
55800;SDS011;41730;51.960;20.158;2022-11-20T04:44:57;30.10;;;12.90;;
55800;SDS011;41730;51.960;20.158;2022-11-20T04:47:28;44.20;;;19.70;;
55800;SDS011;41730;51.960;20.158;2022-11-20T04:50:00;40.60;;;14.40;;
55800;SDS011;41730;51.960;20.158;2022-11-20T04:52:32;44.80;;;18.60;;
55800;SDS011;41730;51.960;20.158;2022-11-20T04:55:04;40.60;;;16.00;;
55800;SDS011;41730;51.960;20.158;2022-11-20T04:57:36;42.70;;;16.50;;
55800;SDS011;41730;51.960;20.158;2022-11-20T05:00:09;46.50;;;17.10;;
55800;SDS011;41730;51.960;20.158;2022-11-20T05:02:42;37.90;;;14.10;;
55800;SDS011;41730;51.960;20.158;2022-11-20T05:05:13;30.70;;;13.90;;
55800;SDS011;41730;51.960;20.158;2022-11-20T05:07:45;34.30;;;13.50;;
55800;SDS011;41730;51.960;20.158;2022-11-20T05:10:16;33.80;;;14.20;;
55800;SDS011;41730;51.960;20.158;2022-11-20T05:12:47;39.70;;;15.20;;
55800;SDS011;41730;51.960;20.158;2022-11-20T05:15:20;36.20;;;15.70;;
55800;SDS011;41730;51.960;20.158;2022-11-20T05:17:52;30.30;;;13.50;;
55800;SDS011;41730;51.960;20.158;2022-11-20T05:20:23;36.30;;;15.10;;
55800;SDS011;41730;51.960;20.158;2022-11-20T05:22:57;26.70;;;11.90;;
55800;SDS011;41730;51.960;20.158;2022-11-20T05:25:28;38.10;;;16.50;;
55800;SDS011;41730;51.960;20.158;2022-11-20T05:28:00;32.20;;;12.90;;
55800;SDS011;41730;51.960;20.158;2022-11-20T05:30:31;38.30;;;14.70;;
55800;SDS011;41730;51.960;20.158;2022-11-20T05:33:03;29.00;;;13.10;;
55800;SDS011;41730;51.960;20.158;2022-11-20T05:35:34;41.80;;;16.00;;
55800;SDS011;41730;51.960;20.158;2022-11-20T05:38:06;28.40;;;13.80;;
55800;SDS011;41730;51.960;20.158;2022-11-20T05:40:37;31.80;;;13.90;;
55800;SDS011;41730;51.960;20.158;2022-11-20T05:43:08;36.00;;;15.10;;
55800;SDS011;41730;51.960;20.158;2022-11-20T05:45:40;36.80;;;14.60;;
55800;SDS011;41730;51.960;20.158;2022-11-20T05:48:11;37.90;;;16.40;;
55800;SDS011;41730;51.960;20.158;2022-11-20T05:50:42;38.20;;;13.80;;
55800;SDS011;41730;51.960;20.158;2022-11-20T05:53:14;34.00;;;14.40;;
55800;SDS011;41730;51.960;20.158;2022-11-20T05:55:46;29.70;;;13.90;;
55800;SDS011;41730;51.960;20.158;2022-11-20T05:58:25;37.20;;;17.20;;
55800;SDS011;41730;51.960;20.158;2022-11-20T06:01:02;33.30;;;15.60;;
55800;SDS011;41730;51.960;20.158;2022-11-20T06:03:35;42.10;;;15.40;;
55800;SDS011;41730;51.960;20.158;2022-11-20T06:06:08;37.70;;;15.50;;
55800;SDS011;41730;51.960;20.158;2022-11-20T06:08:39;47.80;;;18.00;;
55800;SDS011;41730;51.960;20.158;2022-11-20T06:11:12;37.80;;;15.80;;
55800;SDS011;41730;51.960;20.158;2022-11-20T06:13:44;39.60;;;16.50;;
55800;SDS011;41730;51.960;20.158;2022-11-20T06:16:17;34.90;;;15.80;;
55800;SDS011;41730;51.960;20.158;2022-11-20T06:18:49;50.20;;;18.10;;
55800;SDS011;41730;51.960;20.158;2022-11-20T06:21:21;46.90;;;16.30;;
55800;SDS011;41730;51.960;20.158;2022-11-20T06:23:53;38.70;;;17.40;;
55800;SDS011;41730;51.960;20.158;2022-11-20T06:26:25;45.00;;;18.10;;
55800;SDS011;41730;51.960;20.158;2022-11-20T06:28:57;46.50;;;17.30;;
55800;SDS011;41730;51.960;20.158;2022-11-20T06:31:28;37.60;;;15.60;;
55800;SDS011;41730;51.960;20.158;2022-11-20T06:34:03;38.50;;;17.30;;
55800;SDS011;41730;51.960;20.158;2022-11-20T06:36:34;37.40;;;17.60;;
55800;SDS011;41730;51.960;20.158;2022-11-20T06:39:06;37.20;;;16.50;;
55800;SDS011;41730;51.960;20.158;2022-11-20T06:41:37;39.50;;;17.40;;
55800;SDS011;41730;51.960;20.158;2022-11-20T06:44:09;45.40;;;18.00;;
55800;SDS011;41730;51.960;20.158;2022-11-20T06:46:40;45.60;;;17.60;;
55800;SDS011;41730;51.960;20.158;2022-11-20T06:49:11;45.10;;;20.60;;
55800;SDS011;41730;51.960;20.158;2022-11-20T06:51:43;52.60;;;22.80;;
55800;SDS011;41730;51.960;20.158;2022-11-20T06:54:14;58.80;;;23.30;;
55800;SDS011;41730;51.960;20.158;2022-11-20T06:56:47;55.70;;;23.60;;
55800;SDS011;41730;51.960;20.158;2022-11-20T06:59:19;58.90;;;24.90;;
55800;SDS011;41730;51.960;20.158;2022-11-20T07:01:51;53.30;;;26.00;;
55800;SDS011;41730;51.960;20.158;2022-11-20T07:04:22;59.70;;;26.60;;
55800;SDS011;41730;51.960;20.158;2022-11-20T07:06:54;56.70;;;27.70;;
55800;SDS011;41730;51.960;20.158;2022-11-20T07:09:25;56.60;;;25.30;;
55800;SDS011;41730;51.960;20.158;2022-11-20T07:11:56;48.30;;;21.80;;
55800;SDS011;41730;51.960;20.158;2022-11-20T07:14:28;54.60;;;25.30;;
55800;SDS011;41730;51.960;20.158;2022-11-20T07:16:59;56.60;;;25.40;;
55800;SDS011;41730;51.960;20.158;2022-11-20T07:19:31;61.60;;;31.70;;
55800;SDS011;41730;51.960;20.158;2022-11-20T07:22:02;58.50;;;27.10;;
55800;SDS011;41730;51.960;20.158;2022-11-20T07:24:34;56.60;;;28.00;;
55800;SDS011;41730;51.960;20.158;2022-11-20T07:27:12;55.10;;;27.60;;
55800;SDS011;41730;51.960;20.158;2022-11-20T07:29:44;57.20;;;29.50;;
55800;SDS011;41730;51.960;20.158;2022-11-20T07:32:15;64.20;;;29.40;;
55800;SDS011;41730;51.960;20.158;2022-11-20T07:34:46;63.90;;;30.60;;
55800;SDS011;41730;51.960;20.158;2022-11-20T07:37:18;62.10;;;31.40;;
55800;SDS011;41730;51.960;20.158;2022-11-20T07:39:49;60.30;;;31.40;;
55800;SDS011;41730;51.960;20.158;2022-11-20T07:42:20;59.60;;;32.70;;
55800;SDS011;41730;51.960;20.158;2022-11-20T07:44:52;59.20;;;31.70;;
55800;SDS011;41730;51.960;20.158;2022-11-20T07:47:24;59.20;;;32.60;;
55800;SDS011;41730;51.960;20.158;2022-11-20T07:49:55;58.70;;;33.00;;
55800;SDS011;41730;51.960;20.158;2022-11-20T07:52:26;59.40;;;34.50;;
55800;SDS011;41730;51.960;20.158;2022-11-20T07:54:58;62.20;;;36.00;;
55800;SDS011;41730;51.960;20.158;2022-11-20T07:57:30;63.90;;;35.00;;
55800;SDS011;41730;51.960;20.158;2022-11-20T08:00:01;67.80;;;36.80;;
55800;SDS011;41730;51.960;20.158;2022-11-20T08:02:36;61.30;;;34.10;;
55800;SDS011;41730;51.960;20.158;2022-11-20T08:05:08;63.70;;;36.30;;
55800;SDS011;41730;51.960;20.158;2022-11-20T08:07:41;60.20;;;33.40;;
55800;SDS011;41730;51.960;20.158;2022-11-20T08:10:14;57.00;;;32.80;;
55800;SDS011;41730;51.960;20.158;2022-11-20T08:12:46;56.20;;;33.30;;
55800;SDS011;41730;51.960;20.158;2022-11-20T08:15:37;58.80;;;34.30;;
55800;SDS011;41730;51.960;20.158;2022-11-20T08:18:10;58.30;;;32.20;;
55800;SDS011;41730;51.960;20.158;2022-11-20T08:21:01;60.10;;;32.30;;
55800;SDS011;41730;51.960;20.158;2022-11-20T08:23:33;56.60;;;31.30;;
55800;SDS011;41730;51.960;20.158;2022-11-20T08:26:04;59.70;;;31.60;;
55800;SDS011;41730;51.960;20.158;2022-11-20T08:28:36;56.10;;;32.60;;
55800;SDS011;41730;51.960;20.158;2022-11-20T08:31:07;54.20;;;32.10;;
55800;SDS011;41730;51.960;20.158;2022-11-20T08:33:39;54.80;;;32.60;;
55800;SDS011;41730;51.960;20.158;2022-11-20T08:36:10;58.80;;;33.80;;
55800;SDS011;41730;51.960;20.158;2022-11-20T08:38:42;59.90;;;33.90;;
55800;SDS011;41730;51.960;20.158;2022-11-20T08:41:18;58.20;;;32.40;;
55800;SDS011;41730;51.960;20.158;2022-11-20T08:43:55;60.30;;;32.40;;
55800;SDS011;41730;51.960;20.158;2022-11-20T08:46:30;56.30;;;32.10;;
55800;SDS011;41730;51.960;20.158;2022-11-20T08:49:05;54.60;;;33.20;;
55800;SDS011;41730;51.960;20.158;2022-11-20T08:51:38;56.70;;;32.40;;
55800;SDS011;41730;51.960;20.158;2022-11-20T08:54:10;49.20;;;30.30;;
55800;SDS011;41730;51.960;20.158;2022-11-20T08:56:59;54.10;;;31.20;;
55800;SDS011;41730;51.960;20.158;2022-11-20T09:03:05;55.40;;;31.10;;
55800;SDS011;41730;51.960;20.158;2022-11-20T09:08:45;56.90;;;31.80;;
55800;SDS011;41730;51.960;20.158;2022-11-20T09:11:16;60.80;;;33.60;;
55800;SDS011;41730;51.960;20.158;2022-11-20T09:13:50;54.40;;;32.40;;
55800;SDS011;41730;51.960;20.158;2022-11-20T09:16:30;53.40;;;30.60;;
55800;SDS011;41730;51.960;20.158;2022-11-20T09:19:19;49.30;;;29.60;;
55800;SDS011;41730;51.960;20.158;2022-11-20T09:22:08;51.40;;;28.00;;
55800;SDS011;41730;51.960;20.158;2022-11-20T09:25:03;48.20;;;27.60;;
55800;SDS011;41730;51.960;20.158;2022-11-20T09:27:44;51.20;;;27.70;;
55800;SDS011;41730;51.960;20.158;2022-11-20T09:30:17;48.40;;;28.20;;
55800;SDS011;41730;51.960;20.158;2022-11-20T09:32:53;54.50;;;31.80;;
55800;SDS011;41730;51.960;20.158;2022-11-20T09:35:28;50.70;;;28.90;;
55800;SDS011;41730;51.960;20.158;2022-11-20T09:38:11;44.10;;;26.80;;
55800;SDS011;41730;51.960;20.158;2022-11-20T09:40:55;44.70;;;26.80;;
55800;SDS011;41730;51.960;20.158;2022-11-20T09:43:57;44.10;;;27.40;;
55800;SDS011;41730;51.960;20.158;2022-11-20T09:47:00;52.60;;;28.80;;
55800;SDS011;41730;51.960;20.158;2022-11-20T09:49:51;47.90;;;27.80;;
55800;SDS011;41730;51.960;20.158;2022-11-20T09:56:11;53.40;;;28.10;;
55800;SDS011;41730;51.960;20.158;2022-11-20T09:58:50;50.90;;;27.50;;
55800;SDS011;41730;51.960;20.158;2022-11-20T10:01:30;55.40;;;29.90;;
55800;SDS011;41730;51.960;20.158;2022-11-20T10:04:10;48.40;;;27.40;;
55800;SDS011;41730;51.960;20.158;2022-11-20T10:06:50;49.60;;;26.60;;
55800;SDS011;41730;51.960;20.158;2022-11-20T10:09:51;44.70;;;26.20;;
55800;SDS011;41730;51.960;20.158;2022-11-20T10:12:34;51.70;;;26.00;;
55800;SDS011;41730;51.960;20.158;2022-11-20T10:15:22;48.60;;;26.30;;
55800;SDS011;41730;51.960;20.158;2022-11-20T10:18:07;41.70;;;23.70;;
55800;SDS011;41730;51.960;20.158;2022-11-20T10:20:53;40.10;;;22.00;;
55800;SDS011;41730;51.960;20.158;2022-11-20T10:23:51;38.40;;;21.40;;
55800;SDS011;41730;51.960;20.158;2022-11-20T10:26:52;40.50;;;21.60;;
55800;SDS011;41730;51.960;20.158;2022-11-20T10:29:39;42.80;;;23.60;;
55800;SDS011;41730;51.960;20.158;2022-11-20T10:32:44;43.00;;;27.60;;
55800;SDS011;41730;51.960;20.158;2022-11-20T10:35:33;39.20;;;21.90;;
55800;SDS011;41730;51.960;20.158;2022-11-20T10:38:21;48.30;;;24.80;;
55800;SDS011;41730;51.960;20.158;2022-11-20T10:41:20;45.20;;;24.50;;
55800;SDS011;41730;51.960;20.158;2022-11-20T10:44:09;42.50;;;24.00;;
55800;SDS011;41730;51.960;20.158;2022-11-20T10:47:18;46.50;;;24.30;;
55800;SDS011;41730;51.960;20.158;2022-11-20T10:53:36;46.60;;;22.30;;
55800;SDS011;41730;51.960;20.158;2022-11-20T11:00:46;46.50;;;23.20;;
55800;SDS011;41730;51.960;20.158;2022-11-20T11:03:35;42.90;;;21.90;;
55800;SDS011;41730;51.960;20.158;2022-11-20T11:06:17;49.30;;;25.60;;
55800;SDS011;41730;51.960;20.158;2022-11-20T11:12:23;46.10;;;22.30;;
55800;SDS011;41730;51.960;20.158;2022-11-20T11:15:11;40.40;;;21.70;;
55800;SDS011;41730;51.960;20.158;2022-11-20T11:18:22;42.50;;;21.70;;
55800;SDS011;41730;51.960;20.158;2022-11-20T11:21:24;41.30;;;21.20;;
55800;SDS011;41730;51.960;20.158;2022-11-20T11:25:18;42.00;;;19.20;;
55800;SDS011;41730;51.960;20.158;2022-11-20T11:28:38;42.80;;;20.20;;
55800;SDS011;41730;51.960;20.158;2022-11-20T11:31:27;37.00;;;17.80;;
55800;SDS011;41730;51.960;20.158;2022-11-20T11:34:14;34.60;;;19.60;;
55800;SDS011;41730;51.960;20.158;2022-11-20T11:36:54;35.70;;;20.60;;
55800;SDS011;41730;51.960;20.158;2022-11-20T11:39:41;34.80;;;19.80;;
55800;SDS011;41730;51.960;20.158;2022-11-20T11:42:29;40.00;;;21.60;;
55800;SDS011;41730;51.960;20.158;2022-11-20T11:45:28;41.20;;;22.40;;
55800;SDS011;41730;51.960;20.158;2022-11-20T11:48:12;38.00;;;19.90;;
55800;SDS011;41730;51.960;20.158;2022-11-20T11:50:49;39.80;;;20.90;;
55800;SDS011;41730;51.960;20.158;2022-11-20T11:53:26;42.00;;;21.20;;
55800;SDS011;41730;51.960;20.158;2022-11-20T11:56:02;38.40;;;22.50;;
55800;SDS011;41730;51.960;20.158;2022-11-20T11:58:42;38.50;;;21.00;;
55800;SDS011;41730;51.960;20.158;2022-11-20T12:01:24;40.20;;;21.00;;
55800;SDS011;41730;51.960;20.158;2022-11-20T12:04:21;44.90;;;22.60;;
55800;SDS011;41730;51.960;20.158;2022-11-20T12:07:22;37.50;;;19.70;;
55800;SDS011;41730;51.960;20.158;2022-11-20T12:10:19;37.50;;;19.00;;
55800;SDS011;41730;51.960;20.158;2022-11-20T12:12:58;39.00;;;20.60;;
55800;SDS011;41730;51.960;20.158;2022-11-20T12:16:32;32.30;;;16.40;;
55800;SDS011;41730;51.960;20.158;2022-11-20T12:19:29;33.50;;;17.40;;
55800;SDS011;41730;51.960;20.158;2022-11-20T12:22:06;36.10;;;18.90;;
55800;SDS011;41730;51.960;20.158;2022-11-20T12:25:11;36.20;;;17.80;;
55800;SDS011;41730;51.960;20.158;2022-11-20T12:31:24;33.80;;;17.50;;
55800;SDS011;41730;51.960;20.158;2022-11-20T12:34:34;35.70;;;17.30;;
55800;SDS011;41730;51.960;20.158;2022-11-20T12:40:34;32.60;;;15.70;;
55800;SDS011;41730;51.960;20.158;2022-11-20T12:43:30;36.60;;;18.00;;
55800;SDS011;41730;51.960;20.158;2022-11-20T12:46:35;34.00;;;17.40;;
55800;SDS011;41730;51.960;20.158;2022-11-20T12:49:29;44.40;;;23.00;;
55800;SDS011;41730;51.960;20.158;2022-11-20T12:52:29;46.40;;;23.00;;
55800;SDS011;41730;51.960;20.158;2022-11-20T12:55:42;40.00;;;21.10;;
55800;SDS011;41730;51.960;20.158;2022-11-20T12:58:43;45.80;;;22.50;;
55800;SDS011;41730;51.960;20.158;2022-11-20T13:01:40;49.10;;;25.30;;
55800;SDS011;41730;51.960;20.158;2022-11-20T13:04:38;40.70;;;19.90;;
55800;SDS011;41730;51.960;20.158;2022-11-20T13:07:46;47.20;;;23.60;;
55800;SDS011;41730;51.960;20.158;2022-11-20T13:10:42;43.10;;;22.60;;
55800;SDS011;41730;51.960;20.158;2022-11-20T13:13:27;43.70;;;23.90;;
55800;SDS011;41730;51.960;20.158;2022-11-20T13:16:19;41.30;;;22.30;;
55800;SDS011;41730;51.960;20.158;2022-11-20T13:19:10;49.50;;;24.20;;
55800;SDS011;41730;51.960;20.158;2022-11-20T13:21:48;40.20;;;21.30;;
55800;SDS011;41730;51.960;20.158;2022-11-20T13:24:31;43.30;;;23.50;;
55800;SDS011;41730;51.960;20.158;2022-11-20T13:27:29;44.80;;;21.70;;
55800;SDS011;41730;51.960;20.158;2022-11-20T13:30:15;37.50;;;20.90;;
55800;SDS011;41730;51.960;20.158;2022-11-20T13:33:04;44.30;;;22.70;;
55800;SDS011;41730;51.960;20.158;2022-11-20T13:36:07;60.10;;;27.10;;
55800;SDS011;41730;51.960;20.158;2022-11-20T13:39:08;58.50;;;33.10;;
55800;SDS011;41730;51.960;20.158;2022-11-20T13:41:55;58.10;;;26.50;;
55800;SDS011;41730;51.960;20.158;2022-11-20T13:44:50;44.30;;;23.60;;
55800;SDS011;41730;51.960;20.158;2022-11-20T13:47:49;58.20;;;33.60;;
55800;SDS011;41730;51.960;20.158;2022-11-20T13:50:37;54.10;;;27.00;;
55800;SDS011;41730;51.960;20.158;2022-11-20T13:53:31;51.80;;;31.50;;
55800;SDS011;41730;51.960;20.158;2022-11-20T13:56:25;47.80;;;22.20;;
55800;SDS011;41730;51.960;20.158;2022-11-20T13:59:34;55.00;;;27.30;;
55800;SDS011;41730;51.960;20.158;2022-11-20T14:02:33;42.70;;;21.20;;
55800;SDS011;41730;51.960;20.158;2022-11-20T14:07:54;42.20;;;18.80;;
55800;SDS011;41730;51.960;20.158;2022-11-20T14:10:36;42.40;;;19.70;;
55800;SDS011;41730;51.960;20.158;2022-11-20T14:13:18;42.50;;;22.30;;
55800;SDS011;41730;51.960;20.158;2022-11-20T14:16:03;43.60;;;21.00;;
55800;SDS011;41730;51.960;20.158;2022-11-20T14:18:47;38.30;;;20.70;;
55800;SDS011;41730;51.960;20.158;2022-11-20T14:21:32;48.40;;;24.60;;
55800;SDS011;41730;51.960;20.158;2022-11-20T14:24:35;49.00;;;23.10;;
55800;SDS011;41730;51.960;20.158;2022-11-20T14:27:36;46.70;;;22.00;;
55800;SDS011;41730;51.960;20.158;2022-11-20T14:30:18;53.00;;;24.90;;
55800;SDS011;41730;51.960;20.158;2022-11-20T14:33:13;60.90;;;27.40;;
55800;SDS011;41730;51.960;20.158;2022-11-20T14:36:00;47.80;;;22.10;;
55800;SDS011;41730;51.960;20.158;2022-11-20T14:42:43;78.60;;;34.40;;
55800;SDS011;41730;51.960;20.158;2022-11-20T14:45:24;66.60;;;28.90;;
55800;SDS011;41730;51.960;20.158;2022-11-20T14:48:08;72.90;;;31.90;;
55800;SDS011;41730;51.960;20.158;2022-11-20T14:50:52;73.00;;;31.30;;
55800;SDS011;41730;51.960;20.158;2022-11-20T14:53:32;75.90;;;32.10;;
55800;SDS011;41730;51.960;20.158;2022-11-20T14:56:09;98.30;;;37.60;;
55800;SDS011;41730;51.960;20.158;2022-11-20T14:58:54;100.30;;;41.10;;
55800;SDS011;41730;51.960;20.158;2022-11-20T15:01:39;113.70;;;41.90;;
55800;SDS011;41730;51.960;20.158;2022-11-20T15:04:45;109.80;;;39.60;;
55800;SDS011;41730;51.960;20.158;2022-11-20T15:07:39;93.00;;;33.40;;
55800;SDS011;41730;51.960;20.158;2022-11-20T15:10:21;92.80;;;33.10;;
55800;SDS011;41730;51.960;20.158;2022-11-20T15:13:04;108.70;;;38.60;;
55800;SDS011;41730;51.960;20.158;2022-11-20T15:15:45;84.70;;;31.50;;
55800;SDS011;41730;51.960;20.158;2022-11-20T15:18:19;107.60;;;33.80;;
55800;SDS011;41730;51.960;20.158;2022-11-20T15:23:26;122.00;;;35.60;;
55800;SDS011;41730;51.960;20.158;2022-11-20T15:26:01;124.80;;;38.00;;
55800;SDS011;41730;51.960;20.158;2022-11-20T15:28:34;125.30;;;40.10;;
55800;SDS011;41730;51.960;20.158;2022-11-20T15:31:12;155.00;;;45.00;;
55800;SDS011;41730;51.960;20.158;2022-11-20T15:39:36;58.40;;;24.70;;
55800;SDS011;41730;51.960;20.158;2022-11-20T15:42:09;51.20;;;23.10;;
55800;SDS011;41730;51.960;20.158;2022-11-20T15:44:43;51.80;;;23.70;;
55800;SDS011;41730;51.960;20.158;2022-11-20T15:47:25;53.40;;;23.70;;
55800;SDS011;41730;51.960;20.158;2022-11-20T15:50:08;61.80;;;27.90;;
55800;SDS011;41730;51.960;20.158;2022-11-20T15:53:01;56.10;;;25.00;;
55800;SDS011;41730;51.960;20.158;2022-11-20T15:55:50;93.10;;;31.10;;
55800;SDS011;41730;51.960;20.158;2022-11-20T15:58:23;107.00;;;37.80;;
55800;SDS011;41730;51.960;20.158;2022-11-20T16:00:56;152.90;;;46.40;;
55800;SDS011;41730;51.960;20.158;2022-11-20T16:03:35;152.60;;;46.80;;
55800;SDS011;41730;51.960;20.158;2022-11-20T16:06:08;149.50;;;44.40;;
55800;SDS011;41730;51.960;20.158;2022-11-20T16:09:18;152.50;;;44.30;;
55800;SDS011;41730;51.960;20.158;2022-11-20T16:11:51;146.00;;;43.60;;
55800;SDS011;41730;51.960;20.158;2022-11-20T16:14:25;124.70;;;39.90;;
55800;SDS011;41730;51.960;20.158;2022-11-20T16:17:22;111.40;;;38.40;;
55800;SDS011;41730;51.960;20.158;2022-11-20T16:20:17;141.00;;;48.10;;
55800;SDS011;41730;51.960;20.158;2022-11-20T16:23:26;104.00;;;39.90;;
55800;SDS011;41730;51.960;20.158;2022-11-20T16:26:01;67.50;;;29.90;;
55800;SDS011;41730;51.960;20.158;2022-11-20T16:29:03;59.50;;;25.80;;
55800;SDS011;41730;51.960;20.158;2022-11-20T16:31:53;55.10;;;24.10;;
55800;SDS011;41730;51.960;20.158;2022-11-20T16:34:36;57.50;;;24.00;;
55800;SDS011;41730;51.960;20.158;2022-11-20T16:37:33;48.50;;;22.20;;
55800;SDS011;41730;51.960;20.158;2022-11-20T16:40:27;47.90;;;21.30;;